Opal, Virginia
Current Conditions -  °F | °C
As of 3:15 PM on Thursday 23 Oct 2014 (Local Time) from KHWY Reporting Station
Broken Clouds Broken Clouds  
Wind Chill: 67°   Ceiling: 4700
Heat Index: 67°   Visibility: 10mi
Dew Point: 51°   Wind: 18mph
Humidity: 57%   Direction: 310°NW
Pressure: 29.89"   Gusts: 23mph
Location:  38.6876°N, 77.819°W
Report Text: KHWY 231915Z AUTO 31016G20KT 10SM BKN047 19/11 A2989 RMK AO2 T01930106
Loading
Personal Weather Stations






























Interactive Weather Map
Tropical Storm Tracking
New forecast layout! Learn more

10-Day Weather Forecast

Advertisements
Track Severe Weather on mobile